Time;durP1;ratioP1;P1;durP2;ratioP2;P2;SDS_P1;SDS_P2;PMS_P1;PMS_P2;Temp;Humidity;BMP_temperature;BMP_pressure;BME280_temperature;BME280_humidity;BME280_pressure;Samples;Min_cycle;Max_cycle;Signal;HPM_P1;HPM_P2
2024/01/09 00:00:48;;;;;;;12.48;6.53;;;-0.80;99.90;;;;;;5113861;28;20059;-70
2024/01/09 00:03:14;;;;;;;13.50;6.72;;;-0.90;99.90;;;;;;5113386;28;20106;-69
2024/01/09 00:05:39;;;;;;;12.55;6.10;;;-0.90;99.90;;;;;;5113452;28;20044;-70
2024/01/09 00:08:05;;;;;;;12.50;6.32;;;-0.90;99.90;;;;;;5112417;28;20032;-70
2024/01/09 00:10:31;;;;;;;14.95;7.28;;;-0.90;99.90;;;;;;5111226;28;20035;-70
2024/01/09 00:12:58;;;;;;;14.13;6.88;;;-0.90;99.90;;;;;;5111686;28;20035;-69
2024/01/09 00:15:23;;;;;;;15.90;6.88;;;-0.90;99.90;;;;;;5112550;28;20034;-70
2024/01/09 00:17:49;;;;;;;14.00;6.75;;;-0.90;99.90;;;;;;5096284;28;20028;-70
2024/01/09 00:20:14;;;;;;;14.43;7.22;;;-0.90;99.90;;;;;;5112377;28;20457;-69
2024/01/09 00:22:41;;;;;;;10.13;6.82;;;-0.90;99.90;;;;;;5108511;28;20465;-69
2024/01/09 00:25:07;;;;;;;15.35;6.90;;;-0.90;99.90;;;;;;5112462;28;20023;-70
2024/01/09 00:27:33;;;;;;;14.02;6.53;;;-1.00;99.90;;;;;;5110478;28;20082;-70
2024/01/09 00:29:59;;;;;;;14.25;7.10;;;-1.00;99.90;;;;;;5110545;28;20051;-69
2024/01/09 00:32:24;;;;;;;14.65;6.95;;;-1.00;99.90;;;;;;5111357;28;20094;-70
2024/01/09 00:34:50;;;;;;;14.10;7.05;;;-1.00;99.90;;;;;;5113087;28;20064;-70
2024/01/09 00:37:16;;;;;;;13.98;7.18;;;-1.00;99.90;;;;;;5111840;28;20479;-70
2024/01/09 00:39:41;;;;;;;12.43;6.43;;;-1.00;99.90;;;;;;5111350;28;20535;-70
2024/01/09 00:42:07;;;;;;;15.95;7.10;;;-1.00;99.90;;;;;;5111770;28;20481;-70
2024/01/09 00:44:32;;;;;;;14.23;6.80;;;-1.00;99.90;;;;;;5112162;28;20051;-70
2024/01/09 00:46:58;;;;;;;12.82;6.75;;;-1.00;99.90;;;;;;5110911;28;20039;-70
2024/01/09 00:49:23;;;;;;;12.52;6.32;;;-1.00;99.90;;;;;;5111749;28;20472;-69
2024/01/09 00:51:49;;;;;;;12.40;7.05;;;-1.00;99.90;;;;;;5112773;28;20480;-70
2024/01/09 00:54:14;;;;;;;13.75;6.82;;;-1.00;99.90;;;;;;5111005;28;20035;-69
2024/01/09 00:56:40;;;;;;;13.73;6.80;;;-1.00;99.90;;;;;;5111123;28;20035;-70
2024/01/09 00:59:05;;;;;;;13.23;6.70;;;-1.00;99.90;;;;;;5094378;28;20067;-69
2024/01/09 01:01:31;;;;;;;13.27;6.53;;;-1.00;99.90;;;;;;5111631;28;20035;-69
2024/01/09 01:03:56;;;;;;;12.93;6.78;;;-1.10;99.90;;;;;;5112869;28;20031;-69
2024/01/09 01:06:22;;;;;;;12.77;7.13;;;-1.10;99.90;;;;;;5107093;28;20048;-69
2024/01/09 01:08:47;;;;;;;13.52;6.82;;;-1.10;99.90;;;;;;5110185;28;20027;-70
2024/01/09 01:11:13;;;;;;;15.25;7.60;;;-1.10;99.90;;;;;;5110520;28;20047;-69
2024/01/09 01:13:39;;;;;;;13.75;6.82;;;-1.10;99.90;;;;;;5109032;28;20508;-70
2024/01/09 01:16:04;;;;;;;13.88;7.00;;;-1.10;99.90;;;;;;5104802;28;20032;-70
2024/01/09 01:18:30;;;;;;;16.23;7.30;;;-1.10;99.90;;;;;;5107544;28;20035;-70
2024/01/09 01:20:55;;;;;;;14.73;7.43;;;-1.10;99.90;;;;;;5112591;28;20034;-70
2024/01/09 01:23:21;;;;;;;11.63;6.22;;;-1.20;99.90;;;;;;5102254;28;20100;-70
2024/01/09 01:25:47;;;;;;;14.25;7.45;;;-1.20;99.90;;;;;;5109924;28;20040;-69
2024/01/09 01:28:12;;;;;;;13.13;6.93;;;-1.20;99.90;;;;;;5104138;28;20024;-69
2024/01/09 01:30:38;;;;;;;15.27;7.63;;;-1.20;99.90;;;;;;5112396;28;20078;-71
2024/01/09 01:33:03;;;;;;;14.73;6.70;;;-1.20;99.90;;;;;;5101025;28;20032;-70
2024/01/09 01:35:29;;;;;;;13.52;7.13;;;-1.20;99.90;;;;;;5112411;28;20032;-69
2024/01/09 01:37:54;;;;;;;13.43;6.35;;;-1.20;99.90;;;;;;5112307;28;20055;-69
2024/01/09 01:40:20;;;;;;;15.43;7.07;;;-1.20;99.90;;;;;;5111726;28;20126;-70
2024/01/09 01:42:46;;;;;;;14.00;6.72;;;-1.20;99.90;;;;;;5103380;28;20465;-70
2024/01/09 01:45:22;;;;;;;11.73;6.13;;;-1.20;99.90;;;;;;5112433;28;20030;-70
2024/01/09 01:47:48;;;;;;;16.75;7.38;;;-1.20;99.90;;;;;;5112274;28;20431;-70
2024/01/09 01:50:15;;;;;;;12.52;6.85;;;-1.20;99.90;;;;;;5099418;28;20024;-69
2024/01/09 01:52:42;;;;;;;15.20;6.95;;;-1.20;99.90;;;;;;5108874;28;20022;-70
2024/01/09 01:55:10;;;;;;;14.32;6.85;;;-1.30;99.90;;;;;;5116020;28;20131;-70
2024/01/09 01:57:38;;;;;;;12.30;6.40;;;-1.30;99.90;;;;;;5105865;28;20016;-69
2024/01/09 02:00:04;;;;;;;12.50;6.35;;;-1.30;99.90;;;;;;5108759;28;20080;-70
2024/01/09 02:02:31;;;;;;;13.10;6.60;;;-1.30;99.90;;;;;;5110306;28;20028;-70
2024/01/09 02:04:57;;;;;;;12.18;6.38;;;-1.20;99.90;;;;;;5115734;28;20048;-69
2024/01/09 02:07:25;;;;;;;13.50;6.88;;;-1.30;99.90;;;;;;5114464;28;20075;-70
2024/01/09 02:09:53;;;;;;;11.25;6.38;;;-1.30;99.90;;;;;;5097533;28;20024;-70
2024/01/09 02:12:19;;;;;;;14.15;6.50;;;-1.30;99.90;;;;;;5116076;28;20023;-70
2024/01/09 02:14:46;;;;;;;10.48;5.97;;;-1.30;99.90;;;;;;5114053;28;20035;-70
2024/01/09 02:17:12;;;;;;;13.82;6.90;;;-1.30;99.90;;;;;;5109763;28;20042;-70
2024/01/09 02:19:38;;;;;;;12.45;6.32;;;-1.30;99.90;;;;;;5105891;28;20039;-70
2024/01/09 02:22:03;;;;;;;13.40;6.50;;;-1.30;99.90;;;;;;5114581;28;20475;-70
2024/01/09 02:24:29;;;;;;;14.40;6.63;;;-1.30;99.90;;;;;;5112606;28;20380;-69
2024/01/09 02:27:10;;;;;;;12.10;6.50;;;-1.30;99.90;;;;;;5110454;28;20093;-70
2024/01/09 02:29:44;;;;;;;12.05;6.15;;;-1.30;99.90;;;;;;5114193;28;20027;-70
2024/01/09 02:32:10;;;;;;;10.23;5.55;;;-1.30;99.90;;;;;;5115666;28;20106;-69
2024/01/09 02:34:38;;;;;;;11.52;5.72;;;-1.30;99.90;;;;;;5115521;28;20122;-70
2024/01/09 02:37:03;;;;;;;10.30;5.80;;;-1.30;99.90;;;;;;5115270;28;20465;-69
2024/01/09 02:39:29;;;;;;;10.85;5.63;;;-1.40;99.90;;;;;;5113807;28;20077;-69
2024/01/09 02:41:55;;;;;;;16.10;5.97;;;-1.30;99.90;;;;;;5105638;28;20028;-67
2024/01/09 02:44:20;;;;;;;12.23;5.80;;;-1.30;99.90;;;;;;5101033;28;20032;-69
2024/01/09 02:46:46;;;;;;;9.88;5.68;;;-1.30;99.90;;;;;;5112632;28;20362;-69
2024/01/09 02:49:12;;;;;;;10.32;5.32;;;-1.40;99.90;;;;;;5114944;28;20031;-67
2024/01/09 02:51:37;;;;;;;9.82;5.25;;;-1.40;99.90;;;;;;5114333;28;20035;-68
2024/01/09 02:54:03;;;;;;;11.90;5.38;;;-1.40;99.90;;;;;;5115228;28;20465;-69
2024/01/09 02:56:29;;;;;;;10.63;5.18;;;-1.40;99.90;;;;;;5114894;28;20457;-68
2024/01/09 02:58:54;;;;;;;11.10;4.85;;;-1.40;99.90;;;;;;5114878;28;20031;-68
2024/01/09 03:01:23;;;;;;;11.27;4.95;;;-1.40;99.90;;;;;;5112132;28;20032;-68
2024/01/09 03:03:48;;;;;;;10.00;4.80;;;-1.40;99.90;;;;;;5114530;28;20038;-69
2024/01/09 03:06:14;;;;;;;9.73;4.55;;;-1.40;99.90;;;;;;5113493;28;20044;-69
2024/01/09 03:08:39;;;;;;;11.43;5.03;;;-1.40;99.90;;;;;;5100230;28;20028;-68
2024/01/09 03:11:05;;;;;;;9.88;4.55;;;-1.40;99.90;;;;;;5096315;28;20031;-68
2024/01/09 03:13:30;;;;;;;8.93;4.70;;;-1.40;99.90;;;;;;5111507;28;20031;-69
2024/01/09 03:15:56;;;;;;;11.63;4.80;;;-1.40;99.90;;;;;;5112728;28;20033;-69
2024/01/09 03:18:21;;;;;;;10.75;4.80;;;-1.40;99.90;;;;;;5112969;28;20036;-68
2024/01/09 03:20:47;;;;;;;9.88;4.55;;;-1.40;99.90;;;;;;5114432;28;20077;-68
2024/01/09 03:23:12;;;;;;;12.20;4.80;;;-1.40;99.90;;;;;;5114849;28;20030;-68
2024/01/09 03:25:38;;;;;;;10.23;5.10;;;-1.40;99.90;;;;;;5110640;28;20481;-67
2024/01/09 03:28:04;;;;;;;10.07;4.68;;;-1.40;99.90;;;;;;5105835;28;20049;-68
2024/01/09 03:30:29;;;;;;;9.27;4.93;;;-1.40;99.90;;;;;;5114668;28;20461;-69
2024/01/09 03:32:55;;;;;;;7.78;4.30;;;-1.40;99.90;;;;;;5095457;28;20063;-67
2024/01/09 03:35:21;;;;;;;9.05;4.10;;;-1.40;99.90;;;;;;5114455;28;20107;-69
2024/01/09 03:37:46;;;;;;;8.90;4.15;;;-1.40;99.90;;;;;;5113185;28;20032;-70
2024/01/09 03:40:12;;;;;;;10.50;4.55;;;-1.40;99.90;;;;;;5113994;28;20032;-70
2024/01/09 03:42:38;;;;;;;9.23;4.32;;;-1.40;99.90;;;;;;5090163;28;20545;-68
2024/01/09 03:45:05;;;;;;;9.43;4.60;;;-1.40;99.90;;;;;;5114176;28;20035;-69
2024/01/09 03:47:30;;;;;;;10.48;4.50;;;-1.40;99.90;;;;;;5113871;28;20088;-69
2024/01/09 03:49:56;;;;;;;7.38;4.35;;;-1.40;99.90;;;;;;5113980;28;20114;-68
2024/01/09 03:52:22;;;;;;;9.13;4.32;;;-1.40;99.90;;;;;;5108259;28;20016;-68
2024/01/09 03:54:47;;;;;;;9.32;4.32;;;-1.40;99.90;;;;;;5101064;28;20039;-69
2024/01/09 03:57:13;;;;;;;7.50;4.30;;;-1.40;99.90;;;;;;5113265;28;20023;-69
2024/01/09 03:59:38;;;;;;;8.93;4.22;;;-1.40;99.90;;;;;;5105077;28;20043;-70
2024/01/09 04:02:04;;;;;;;9.05;4.82;;;-1.40;99.90;;;;;;5109363;28;20155;-69
2024/01/09 04:04:30;;;;;;;10.32;4.75;;;-1.40;99.90;;;;;;5111226;28;20044;-68
2024/01/09 04:06:55;;;;;;;9.65;4.50;;;-1.40;99.90;;;;;;5113390;28;20480;-68
2024/01/09 04:09:21;;;;;;;10.40;4.50;;;-1.50;99.90;;;;;;5098382;28;20106;-69
2024/01/09 04:11:47;;;;;;;6.80;4.28;;;-1.50;99.90;;;;;;5103864;28;20346;-68
2024/01/09 04:14:13;;;;;;;10.20;4.68;;;-1.50;99.90;;;;;;5110348;28;20537;-69
2024/01/09 04:16:42;;;;;;;8.27;4.60;;;-1.50;99.90;;;;;;5113287;28;20084;-68
2024/01/09 04:19:08;;;;;;;9.75;4.80;;;-1.50;99.90;;;;;;5096035;28;20023;-68
2024/01/09 04:21:34;;;;;;;12.43;4.25;;;-1.50;99.90;;;;;;5113430;28;20023;-69
2024/01/09 04:23:59;;;;;;;10.45;4.75;;;-1.50;99.90;;;;;;5113336;28;20465;-70
2024/01/09 04:26:25;;;;;;;9.18;4.40;;;-1.50;99.90;;;;;;5110031;28;20362;-69
2024/01/09 04:28:50;;;;;;;12.60;4.50;;;-1.50;99.90;;;;;;5110806;28;20032;-70
2024/01/09 04:31:16;;;;;;;8.75;4.07;;;-1.60;99.90;;;;;;5110053;28;20023;-68
2024/01/09 04:33:41;;;;;;;12.10;4.97;;;-1.60;99.90;;;;;;5112872;28;20108;-68
2024/01/09 04:36:07;;;;;;;9.27;4.43;;;-1.60;99.90;;;;;;5112887;28;20038;-68
2024/01/09 04:38:33;;;;;;;8.68;4.38;;;-1.60;99.90;;;;;;5110230;28;20019;-69
2024/01/09 04:40:59;;;;;;;11.73;4.40;;;-1.60;99.90;;;;;;5113075;28;20578;-69
2024/01/09 04:43:25;;;;;;;13.63;4.72;;;-1.60;99.90;;;;;;5112728;28;20020;-69
2024/01/09 04:45:50;;;;;;;10.43;4.55;;;-1.60;99.90;;;;;;5112277;28;20019;-70
2024/01/09 04:48:16;;;;;;;9.88;4.57;;;-1.70;99.90;;;;;;5110179;28;20023;-69
2024/01/09 04:50:41;;;;;;;11.50;5.03;;;-1.70;99.90;;;;;;5089353;28;20119;-69
2024/01/09 04:53:07;;;;;;;10.85;4.93;;;-1.70;99.90;;;;;;5112800;28;20027;-69
2024/01/09 04:55:32;;;;;;;15.25;5.43;;;-1.70;99.90;;;;;;5112941;28;20407;-68
2024/01/09 04:57:58;;;;;;;10.40;4.60;;;-1.70;99.90;;;;;;5112420;28;20028;-68
2024/01/09 05:00:23;;;;;;;14.35;5.63;;;-1.80;99.90;;;;;;5111755;28;20028;-68
2024/01/09 05:02:49;;;;;;;16.92;4.90;;;-1.80;99.90;;;;;;5093724;28;20546;-69
2024/01/09 05:05:15;;;;;;;10.02;5.07;;;-1.80;99.90;;;;;;5110853;28;20128;-69
2024/01/09 05:07:40;;;;;;;16.15;5.28;;;-1.80;99.90;;;;;;5112340;28;20042;-69
2024/01/09 05:10:06;;;;;;;11.02;4.97;;;-1.80;99.90;;;;;;5110408;28;20127;-68
2024/01/09 05:12:32;;;;;;;13.02;5.13;;;-1.80;99.90;;;;;;5109510;28;20031;-68
2024/01/09 05:14:57;;;;;;;11.90;4.97;;;-1.80;99.90;;;;;;5112137;28;20107;-70
2024/01/09 05:17:23;;;;;;;11.75;5.38;;;-1.90;99.90;;;;;;5113117;28;20020;-69
2024/01/09 05:19:48;;;;;;;10.55;4.95;;;-1.90;99.90;;;;;;5111075;28;20040;-70
2024/01/09 05:22:35;;;;;;;21.52;5.57;;;-1.90;99.90;;;;;;5086303;28;20057;-70
2024/01/09 05:25:03;;;;;;;13.63;5.18;;;-2.00;99.90;;;;;;5105018;28;20024;-69
2024/01/09 05:27:28;;;;;;;13.07;5.07;;;-1.90;99.90;;;;;;5110355;28;20168;-68
2024/01/09 05:29:54;;;;;;;12.57;5.20;;;-1.90;99.90;;;;;;5114761;28;20110;-69
2024/01/09 05:32:20;;;;;;;13.38;5.22;;;-2.00;99.90;;;;;;5116937;28;20457;-70
2024/01/09 05:34:46;;;;;;;11.85;4.90;;;-2.00;99.90;;;;;;5116884;28;20034;-68
2024/01/09 05:37:11;;;;;;;9.45;4.68;;;-2.00;99.90;;;;;;5116643;28;20035;-69
2024/01/09 05:39:37;;;;;;;34.97;7.25;;;-2.00;99.90;;;;;;5115170;28;20059;-69
2024/01/09 05:42:03;;;;;;;11.25;5.00;;;-2.00;99.90;;;;;;5116469;28;20024;-68
2024/01/09 05:44:28;;;;;;;8.27;4.63;;;-2.00;99.90;;;;;;5115313;28;20023;-69
2024/01/09 05:46:54;;;;;;;11.35;5.07;;;-2.00;99.90;;;;;;5116442;28;20420;-68
2024/01/09 05:49:19;;;;;;;13.38;5.53;;;-2.10;99.90;;;;;;5113613;28;20358;-68
2024/01/09 05:51:45;;;;;;;7.88;4.03;;;-2.10;99.90;;;;;;5116888;28;20062;-70
2024/01/09 05:54:11;;;;;;;10.23;5.07;;;-2.10;99.90;;;;;;5116927;28;20080;-69
2024/01/09 05:56:37;;;;;;;11.95;4.93;;;-2.10;99.90;;;;;;5097915;28;20054;-70
2024/01/09 05:59:03;;;;;;;13.35;5.55;;;-2.10;99.90;;;;;;5115452;28;20046;-69
2024/01/09 06:01:28;;;;;;;9.07;4.30;;;-2.10;99.90;;;;;;5112190;28;20028;-70
2024/01/09 06:03:54;;;;;;;9.95;4.70;;;-2.10;99.90;;;;;;5112944;28;20023;-70
2024/01/09 06:06:19;;;;;;;12.90;5.13;;;-2.10;99.90;;;;;;5112461;28;20050;-70
2024/01/09 06:08:45;;;;;;;11.00;4.70;;;-2.20;99.90;;;;;;5114318;28;20048;-70
2024/01/09 06:11:11;;;;;;;12.55;4.90;;;-2.20;99.90;;;;;;5114549;28;20028;-68
2024/01/09 06:13:37;;;;;;;9.63;4.78;;;-2.10;99.90;;;;;;5115420;28;20469;-69
2024/01/09 06:16:02;;;;;;;12.88;5.50;;;-2.20;99.90;;;;;;5116314;28;20072;-69
2024/01/09 06:18:28;;;;;;;10.82;5.00;;;-2.20;99.90;;;;;;5116195;28;20103;-69
2024/01/09 06:20:53;;;;;;;10.45;4.60;;;-2.20;99.90;;;;;;5115265;28;20027;-70
2024/01/09 06:23:19;;;;;;;8.27;4.78;;;-2.30;99.90;;;;;;5109925;28;20074;-69
2024/01/09 06:25:44;;;;;;;21.25;5.63;;;-2.20;99.90;;;;;;5116042;28;20028;-68
2024/01/09 06:28:10;;;;;;;9.43;4.72;;;-2.20;99.90;;;;;;5115649;28;20171;-69
2024/01/09 06:30:35;;;;;;;9.90;4.75;;;-2.30;99.90;;;;;;5094669;28;20063;-68
2024/01/09 06:33:01;;;;;;;12.60;5.22;;;-2.20;99.90;;;;;;5115163;28;20030;-68
2024/01/09 06:35:27;;;;;;;11.85;5.00;;;-2.30;99.90;;;;;;5115277;28;20062;-69
2024/01/09 06:37:52;;;;;;;9.80;4.32;;;-2.30;99.90;;;;;;5113199;28;20049;-68
2024/01/09 06:40:19;;;;;;;10.48;4.65;;;-2.30;99.90;;;;;;5111707;28;20066;-69
2024/01/09 06:42:46;;;;;;;11.52;4.85;;;-2.30;99.90;;;;;;5114246;28;20026;-69
2024/01/09 06:45:14;;;;;;;9.32;3.95;;;-2.30;99.90;;;;;;5115036;28;20031;-68
2024/01/09 06:47:41;;;;;;;8.27;4.13;;;-2.30;99.90;;;;;;5113047;28;20036;-69
2024/01/09 06:50:06;;;;;;;9.82;4.70;;;-2.40;99.90;;;;;;5115091;28;20027;-69
2024/01/09 06:52:32;;;;;;;9.27;3.95;;;-2.40;99.90;;;;;;5114546;28;20386;-69
2024/01/09 06:54:57;;;;;;;12.10;4.75;;;-2.40;99.90;;;;;;5113247;28;20060;-69
2024/01/09 06:57:24;;;;;;;10.85;5.10;;;-2.40;99.90;;;;;;5114782;28;20135;-70
2024/01/09 06:59:50;;;;;;;11.18;4.45;;;-2.40;99.90;;;;;;5115252;28;20022;-70
2024/01/09 07:02:17;;;;;;;9.68;4.65;;;-2.40;99.90;;;;;;5110863;28;20040;-68
2024/01/09 07:04:42;;;;;;;11.57;4.40;;;-2.40;99.90;;;;;;5112216;28;20408;-67
2024/01/09 07:07:08;;;;;;;12.65;4.82;;;-2.40;99.90;;;;;;5115058;28;20520;-68
2024/01/09 07:09:33;;;;;;;11.18;4.50;;;-2.40;99.90;;;;;;5114851;28;20470;-68
2024/01/09 07:11:59;;;;;;;8.20;4.32;;;-2.40;99.90;;;;;;5095218;28;20035;-69
2024/01/09 07:14:24;;;;;;;13.27;4.82;;;-2.40;99.90;;;;;;5113390;28;20020;-68
2024/01/09 07:16:51;;;;;;;10.68;4.20;;;-2.40;99.90;;;;;;5110948;28;20055;-68
2024/01/09 07:19:16;;;;;;;10.98;4.15;;;-2.40;99.90;;;;;;5112204;28;20058;-69
2024/01/09 07:21:42;;;;;;;10.65;5.03;;;-2.40;99.90;;;;;;5114543;28;20024;-69
2024/01/09 07:24:08;;;;;;;12.13;5.15;;;-2.40;99.90;;;;;;5095733;28;20381;-69
2024/01/09 07:26:39;;;;;;;11.68;4.10;;;-2.50;99.90;;;;;;5113152;28;20516;-69
2024/01/09 07:29:05;;;;;;;9.70;4.60;;;-2.40;99.90;;;;;;5113209;28;20028;-69
2024/01/09 07:31:30;;;;;;;8.98;4.60;;;-2.40;99.90;;;;;;5102025;28;20040;-68
2024/01/09 07:33:56;;;;;;;9.48;4.15;;;-2.40;99.90;;;;;;5114432;28;20027;-68
2024/01/09 07:36:21;;;;;;;10.60;4.22;;;-2.40;99.90;;;;;;5107120;28;20396;-69
2024/01/09 07:38:47;;;;;;;10.65;4.47;;;-2.40;99.90;;;;;;5113156;28;20258;-70
2024/01/09 07:41:13;;;;;;;11.88;4.70;;;-2.40;99.90;;;;;;5111885;28;20488;-69
2024/01/09 07:43:38;;;;;;;11.90;4.80;;;-2.40;99.90;;;;;;5112940;28;20107;-68
2024/01/09 07:46:04;;;;;;;8.52;4.13;;;-2.40;99.90;;;;;;5114640;28;20020;-69
2024/01/09 07:48:30;;;;;;;12.13;4.50;;;-2.40;99.90;;;;;;5114480;28;20461;-68
2024/01/09 07:50:56;;;;;;;10.52;4.13;;;-2.40;99.90;;;;;;5098032;28;20028;-69
2024/01/09 07:53:23;;;;;;;8.20;4.03;;;-2.30;99.90;;;;;;5110345;28;20057;-69
2024/01/09 07:55:48;;;;;;;10.73;4.18;;;-2.40;99.90;;;;;;5112240;28;20494;-70
2024/01/09 07:58:15;;;;;;;6.18;3.65;;;-2.30;99.90;;;;;;5108963;28;20028;-70
2024/01/09 08:00:41;;;;;;;16.13;5.03;;;-2.30;99.90;;;;;;5124151;27;20027;-70
2024/01/09 08:03:06;;;;;;;10.05;4.13;;;-2.30;99.90;;;;;;5095323;28;20538;-69
2024/01/09 08:05:32;;;;;;;10.50;4.35;;;-2.30;99.90;;;;;;5111031;28;20051;-70
2024/01/09 08:07:57;;;;;;;9.50;4.28;;;-2.30;99.90;;;;;;5113591;28;20086;-69
2024/01/09 08:10:23;;;;;;;10.60;4.05;;;-2.30;99.90;;;;;;5113352;28;20081;-69
2024/01/09 08:12:48;;;;;;;9.68;3.92;;;-2.30;99.90;;;;;;5102234;28;20054;-70
2024/01/09 08:15:14;;;;;;;9.40;3.85;;;-2.20;99.90;;;;;;5112350;28;20024;-70
2024/01/09 08:17:40;;;;;;;8.77;3.88;;;-2.20;99.90;;;;;;5110520;28;20031;-70
2024/01/09 08:20:06;;;;;;;6.55;3.58;;;-2.20;99.90;;;;;;5112671;28;20389;-68
2024/01/09 08:22:32;;;;;;;5.35;3.40;;;-2.20;99.90;;;;;;5112265;28;20055;-68
2024/01/09 08:24:57;;;;;;;7.63;4.00;;;-2.20;99.90;;;;;;5112029;28;20055;-70
2024/01/09 08:27:23;;;;;;;8.63;4.07;;;-2.20;99.90;;;;;;5113189;28;20031;-69
2024/01/09 08:29:48;;;;;;;8.77;3.63;;;-2.20;99.90;;;;;;5106537;28;20118;-68
2024/01/09 08:32:15;;;;;;;7.43;3.58;;;-2.10;99.90;;;;;;5111705;28;20808;-70
2024/01/09 08:34:41;;;;;;;6.75;3.47;;;-2.10;99.90;;;;;;5112692;28;20023;-68
2024/01/09 08:37:06;;;;;;;7.35;3.70;;;-2.10;99.90;;;;;;5112583;28;20080;-69
2024/01/09 08:39:32;;;;;;;9.63;3.95;;;-2.10;99.90;;;;;;5108001;28;20389;-69
2024/01/09 08:41:57;;;;;;;8.35;3.60;;;-2.00;99.90;;;;;;5104468;28;20503;-69
2024/01/09 08:44:27;;;;;;;7.68;4.07;;;-2.00;99.90;;;;;;5111545;28;20019;-68
2024/01/09 08:46:52;;;;;;;8.63;4.00;;;-1.90;99.90;;;;;;5112355;28;20042;-68
2024/01/09 08:49:18;;;;;;;5.85;3.58;;;-1.90;99.90;;;;;;5094396;28;20028;-70
2024/01/09 08:51:43;;;;;;;8.95;3.83;;;-1.80;99.90;;;;;;5111694;28;20491;-70
2024/01/09 08:54:09;;;;;;;9.63;3.38;;;-1.80;99.90;;;;;;5112525;28;20411;-69
2024/01/09 08:56:34;;;;;;;10.00;3.88;;;-1.70;99.90;;;;;;5107541;28;20043;-69
2024/01/09 08:59:00;;;;;;;9.25;3.83;;;-1.70;99.90;;;;;;5111489;28;20024;-69
2024/01/09 09:01:26;;;;;;;6.88;3.30;;;-1.70;99.90;;;;;;5090336;28;20414;-69
2024/01/09 09:03:51;;;;;;;13.55;4.00;;;-1.60;99.90;;;;;;5093353;28;20046;-68
2024/01/09 09:06:18;;;;;;;5.65;2.90;;;-1.60;99.90;;;;;;5111603;28;20051;-69
2024/01/09 09:08:44;;;;;;;9.20;3.75;;;-1.60;99.90;;;;;;5091602;28;20389;-69
2024/01/09 09:11:14;;;;;;;7.00;2.78;;;-1.50;99.90;;;;;;5111959;28;20023;-69
2024/01/09 09:13:44;;;;;;;11.75;4.53;;;-1.50;99.90;;;;;;5106502;28;20020;-68
2024/01/09 09:16:10;;;;;;;6.50;3.40;;;-1.50;99.90;;;;;;5109672;28;20050;-69
2024/01/09 09:18:36;;;;;;;12.02;4.03;;;-1.40;99.90;;;;;;5093786;28;20509;-69
2024/01/09 09:21:03;;;;;;;8.10;3.75;;;-1.40;99.90;;;;;;5112020;28;20130;-70
2024/01/09 09:23:29;;;;;;;8.80;3.42;;;-1.30;99.90;;;;;;5112747;28;20062;-69
2024/01/09 09:25:54;;;;;;;5.55;3.08;;;-1.20;99.90;;;;;;5107986;28;20036;-70
2024/01/09 09:28:20;;;;;;;8.73;3.40;;;-1.20;99.90;;;;;;5110581;28;20043;-69
2024/01/09 09:30:45;;;;;;;11.57;3.38;;;-1.20;99.90;;;;;;5105075;28;20032;-70
2024/01/09 09:33:12;;;;;;;10.13;3.47;;;-1.10;99.90;;;;;;5105095;28;20028;-70
2024/01/09 09:35:37;;;;;;;10.50;3.40;;;-1.10;99.90;;;;;;5104896;28;20058;-68
2024/01/09 09:38:04;;;;;;;10.95;3.45;;;-1.00;99.90;;;;;;5109154;28;20063;-70
2024/01/09 09:40:30;;;;;;;5.47;3.10;;;-1.00;99.90;;;;;;5112412;28;20077;-69
2024/01/09 09:42:58;;;;;;;7.90;3.20;;;-0.90;99.90;;;;;;5112445;28;20023;-69
2024/01/09 09:45:27;;;;;;;7.03;3.25;;;-0.80;99.90;;;;;;5112547;28;20472;-69
2024/01/09 09:47:56;;;;;;;6.47;3.58;;;-0.70;99.90;;;;;;5103346;28;20035;-69
2024/01/09 09:50:22;;;;;;;8.35;3.00;;;-0.70;99.90;;;;;;5108447;28;20151;-69
2024/01/09 09:52:48;;;;;;;8.30;3.20;;;-0.60;99.90;;;;;;5110095;28;20099;-69
2024/01/09 09:55:14;;;;;;;6.63;3.15;;;-0.40;99.90;;;;;;5111607;28;20055;-69
2024/01/09 09:57:39;;;;;;;9.15;2.97;;;-0.40;99.90;;;;;;5103753;28;20417;-70
2024/01/09 10:00:09;;;;;;;7.80;3.28;;;-0.30;99.90;;;;;;5111779;28;20461;-69
2024/01/09 10:02:46;;;;;;;6.93;3.33;;;-0.20;99.90;;;;;;5111606;28;20039;-69
2024/01/09 10:05:16;;;;;;;7.88;3.10;;;0.10;99.90;;;;;;5104794;28;20048;-68
2024/01/09 10:07:48;;;;;;;9.77;3.22;;;0.40;99.90;;;;;;5111058;28;20044;-69
2024/01/09 10:10:14;;;;;;;6.88;3.08;;;0.70;99.90;;;;;;5100149;28;20043;-69
2024/01/09 10:12:40;;;;;;;4.03;2.70;;;1.20;99.90;;;;;;5090620;28;20473;-69
2024/01/09 10:15:08;;;;;;;7.00;2.95;;;1.70;99.50;;;;;;5110872;28;20058;-69
2024/01/09 10:17:44;;;;;;;7.30;3.42;;;2.30;98.40;;;;;;5115473;28;20151;-67
2024/01/09 10:20:12;;;;;;;6.28;3.17;;;2.70;97.20;;;;;;5115696;28;20047;-67
2024/01/09 10:22:39;;;;;;;8.98;2.90;;;2.70;96.50;;;;;;5100058;28;20249;-69
2024/01/09 10:25:10;;;;;;;8.23;3.22;;;2.40;97.00;;;;;;5112207;28;20028;-67
2024/01/09 10:27:37;;;;;;;5.15;2.65;;;2.00;97.90;;;;;;5114421;28;20035;-67
2024/01/09 10:30:10;;;;;;;6.05;3.20;;;1.70;98.40;;;;;;5114336;28;20042;-68
2024/01/09 10:32:39;;;;;;;6.47;3.00;;;1.50;99.00;;;;;;5113423;28;20028;-68
2024/01/09 10:35:07;;;;;;;6.40;2.80;;;2.00;99.90;;;;;;5113227;28;20365;-68
2024/01/09 10:37:36;;;;;;;6.38;2.55;;;2.90;98.30;;;;;;5112770;28;20031;-68
2024/01/09 10:40:04;;;;;;;5.50;2.90;;;3.80;96.50;;;;;;5112059;28;20038;-68
2024/01/09 10:42:30;;;;;;;4.82;2.55;;;4.40;95.80;;;;;;5094962;28;20088;-69
2024/01/09 10:44:59;;;;;;;4.60;2.90;;;4.80;94.30;;;;;;5112645;28;20465;-68
2024/01/09 10:47:27;;;;;;;6.85;2.78;;;5.10;94.30;;;;;;5112229;28;20055;-68
2024/01/09 10:49:53;;;;;;;4.35;2.30;;;5.30;93.90;;;;;;5111919;28;20165;-69
2024/01/09 10:52:20;;;;;;;4.88;2.65;;;5.60;93.60;;;;;;5113514;28;20057;-68
2024/01/09 10:54:46;;;;;;;6.13;2.88;;;5.70;93.50;;;;;;5114820;28;20543;-69
2024/01/09 10:57:13;;;;;;;7.93;2.92;;;6.00;93.50;;;;;;5105131;28;20051;-69
2024/01/09 10:59:43;;;;;;;6.07;2.75;;;6.30;92.20;;;;;;5115130;28;20063;-68
2024/01/09 11:02:15;;;;;;;6.53;2.95;;;6.60;92.10;;;;;;5109841;28;20024;-68
2024/01/09 11:04:43;;;;;;;;;;;6.80;91.90;;;;;;5113922;28;20035;-68
2024/01/09 11:07:13;;;;;;;8.45;3.40;;;6.90;91.30;;;;;;5111553;28;19919;-71
2024/01/09 11:09:43;;;;;;;7.28;2.95;;;7.00;91.70;;;;;;5094656;28;20020;-69
2024/01/09 11:12:17;;;;;;;9.00;3.03;;;6.90;91.20;;;;;;5109258;28;20035;-69
2024/01/09 11:14:48;;;;;;;4.97;2.88;;;6.90;91.50;;;;;;5103481;28;20027;-68
2024/01/09 11:17:16;;;;;;;6.68;3.15;;;7.00;91.20;;;;;;5112538;28;20439;-69
2024/01/09 11:19:42;;;;;;;6.82;3.30;;;6.90;91.30;;;;;;5113564;28;20016;-69
2024/01/09 11:22:19;;;;;;;4.97;2.70;;;6.80;91.50;;;;;;5114492;28;20553;-69
2024/01/09 11:24:46;;;;;;;5.03;2.60;;;6.80;91.20;;;;;;5112051;28;20031;-69
2024/01/09 11:27:13;;;;;;;5.07;2.90;;;6.80;90.60;;;;;;5113045;28;20036;-69
2024/01/09 11:29:53;;;;;;;5.88;2.97;;;6.80;90.70;;;;;;5111470;28;20031;-70
2024/01/09 11:32:23;;;;;;;5.45;2.90;;;6.90;90.60;;;;;;5113409;28;20130;-69
2024/01/09 11:35:08;;;;;;;5.25;2.67;;;7.00;90.40;;;;;;5107808;28;20035;-69
2024/01/09 11:37:38;;;;;;;7.05;2.92;;;7.00;90.60;;;;;;5107108;28;20020;-69
2024/01/09 11:40:06;;;;;;;5.72;2.58;;;7.10;89.60;;;;;;5114957;28;20031;-69
2024/01/09 11:42:32;;;;;;;5.72;2.85;;;7.10;90.00;;;;;;5113884;28;20043;-70
2024/01/09 11:44:57;;;;;;;3.53;2.28;;;7.00;89.90;;;;;;5110991;28;20097;-70
2024/01/09 11:47:23;;;;;;;5.88;2.97;;;7.00;89.60;;;;;;5105937;28;20038;-70
2024/01/09 11:49:48;;;;;;;6.10;2.85;;;7.00;90.30;;;;;;5114265;28;20019;-70
2024/01/09 11:52:14;;;;;;;5.22;2.15;;;7.00;89.50;;;;;;5113143;28;20034;-70
2024/01/09 11:54:42;;;;;;;4.45;2.10;;;7.00;89.10;;;;;;5111403;28;20059;-71
2024/01/09 11:57:09;;;;;;;4.53;2.60;;;7.00;90.10;;;;;;5104497;28;20024;-71
2024/01/09 11:59:34;;;;;;;5.00;2.55;;;7.10;89.80;;;;;;5112979;28;20100;-71
2024/01/09 12:02:00;;;;;;;3.65;2.40;;;7.20;90.10;;;;;;5109649;28;20114;-71
2024/01/09 12:04:26;;;;;;;4.22;2.50;;;7.30;89.10;;;;;;5106440;28;20059;-71
2024/01/09 12:06:51;;;;;;;5.47;2.17;;;7.30;88.70;;;;;;5105698;28;20079;-72
2024/01/09 12:09:17;;;;;;;4.95;2.60;;;7.30;88.30;;;;;;5113649;28;20119;-72
2024/01/09 12:11:43;;;;;;;5.40;2.17;;;7.10;88.60;;;;;;5113690;28;20488;-72
2024/01/09 12:14:08;;;;;;;5.32;2.33;;;7.00;88.50;;;;;;5113105;28;20039;-73
2024/01/09 12:16:34;;;;;;;5.45;2.63;;;6.80;88.50;;;;;;5112175;28;20067;-73
2024/01/09 12:19:00;;;;;;;6.10;2.50;;;6.70;89.60;;;;;;5108154;28;20028;-73
2024/01/09 12:21:28;;;;;;;5.53;2.50;;;6.50;90.20;;;;;;5104563;28;20031;-73
2024/01/09 12:23:55;;;;;;;6.78;2.95;;;6.60;90.70;;;;;;5112913;28;20015;-74
2024/01/09 12:26:22;;;;;;;7.45;2.88;;;6.60;91.20;;;;;;5103015;28;20062;-72
2024/01/09 12:28:48;;;;;;;6.57;2.63;;;6.60;90.60;;;;;;5106914;28;20458;-74
2024/01/09 12:31:17;;;;;;;3.60;2.10;;;6.60;90.40;;;;;;5111607;28;20415;-72
2024/01/09 12:33:44;;;;;;;5.80;2.58;;;6.40;90.60;;;;;;5109783;28;20027;-71
2024/01/09 12:36:10;;;;;;;7.20;2.65;;;6.40;91.20;;;;;;5108180;28;20028;-72
2024/01/09 12:38:36;;;;;;;4.90;2.72;;;6.30;91.50;;;;;;5108167;28;20057;-75